createdAt,value
2019-03-23T00:04:46.492Z,24.90
2019-03-23T00:09:48.840Z,23.70
2019-03-23T00:14:51.329Z,22.23
2019-03-23T00:19:53.593Z,38.13
2019-03-23T00:24:55.831Z,26.27
2019-03-23T00:29:58.100Z,21.00
2019-03-23T00:35:00.463Z,26.23
2019-03-23T00:40:03.043Z,22.17
2019-03-23T00:45:05.948Z,23.13
2019-03-23T00:50:08.535Z,23.92
2019-03-23T00:55:10.876Z,28.27
2019-03-23T01:00:13.157Z,23.47
2019-03-23T01:05:15.895Z,22.83
2019-03-23T01:10:18.105Z,23.03
2019-03-23T01:15:20.332Z,22.67
2019-03-23T01:20:22.742Z,28.93
2019-03-23T01:25:24.942Z,23.63
2019-03-23T01:30:27.205Z,19.73
2019-03-23T01:35:29.413Z,19.73
2019-03-23T01:40:31.662Z,21.10
2019-03-23T01:45:33.850Z,20.30
2019-03-23T01:50:36.055Z,22.73
2019-03-23T01:55:38.296Z,21.70
2019-03-23T02:00:40.907Z,24.67
2019-03-23T02:05:43.126Z,22.63
2019-03-23T02:10:45.373Z,22.83
2019-03-23T02:15:47.667Z,22.00
2019-03-23T02:20:49.873Z,21.33
2019-03-23T02:25:52.072Z,21.17
2019-03-23T02:30:54.273Z,20.97
2019-03-23T02:35:56.513Z,18.90
2019-03-23T02:40:58.833Z,21.93
2019-03-23T02:46:01.095Z,19.43
2019-03-23T02:51:03.491Z,18.73
2019-03-23T02:56:06.150Z,20.85
2019-03-23T03:01:08.482Z,19.93
2019-03-23T03:06:12.753Z,21.23
2019-03-23T03:11:15.076Z,20.80
2019-03-23T03:16:17.301Z,23.27
2019-03-23T03:21:19.547Z,19.73
2019-03-23T03:26:21.820Z,22.67
2019-03-23T03:31:24.090Z,19.47
2019-03-23T03:36:29.915Z,21.57
2019-03-23T03:41:31.255Z,18.90
2019-03-23T03:46:33.491Z,19.07
2019-03-23T03:51:35.780Z,15.83
2019-03-23T03:56:37.988Z,18.40
2019-03-23T04:01:40.353Z,16.37
2019-03-23T04:06:42.546Z,19.33
2019-03-23T04:11:45.446Z,19.80
2019-03-23T04:16:47.626Z,20.13
2019-03-23T04:21:49.849Z,22.83
2019-03-23T04:26:52.096Z,23.03
2019-03-23T04:31:54.385Z,19.33
2019-03-23T04:36:56.682Z,19.87
2019-03-23T04:41:58.896Z,15.93
2019-03-23T04:47:01.148Z,20.37
2019-03-23T04:52:03.410Z,17.53
2019-03-23T04:57:05.617Z,21.00
2019-03-23T05:02:07.925Z,18.63
2019-03-23T05:12:21.725Z,26.03
2019-03-23T05:17:23.916Z,20.67
2019-03-23T05:22:26.131Z,19.53
2019-03-23T05:27:28.458Z,19.60
2019-03-23T05:32:30.666Z,20.03
2019-03-23T05:37:32.976Z,20.50
2019-03-23T05:42:35.306Z,21.40
2019-03-23T05:47:37.558Z,24.97
2019-03-23T05:52:39.804Z,22.27
2019-03-23T05:57:41.965Z,23.43
2019-03-23T06:02:44.211Z,20.27
2019-03-23T06:07:46.445Z,19.93
2019-03-23T06:12:48.695Z,18.43
2019-03-23T06:17:51.297Z,25.07
2019-03-23T06:22:53.532Z,25.13
2019-03-23T06:27:56.300Z,23.13
2019-03-23T06:32:59.497Z,24.53
2019-03-23T06:38:01.802Z,23.93
2019-03-23T06:43:04.003Z,21.07
2019-03-23T06:48:06.257Z,21.90
2019-03-23T06:53:08.448Z,23.23
2019-03-23T06:58:11.028Z,20.77
2019-03-23T07:03:13.250Z,22.77
2019-03-23T07:08:15.482Z,22.00
2019-03-23T07:13:17.722Z,20.37
2019-03-23T07:18:20.218Z,22.20
2019-03-23T07:23:22.596Z,21.93
2019-03-23T07:28:24.875Z,25.40
2019-03-23T07:33:27.102Z,23.23
2019-03-23T07:38:29.617Z,23.13
2019-03-23T07:43:31.875Z,24.43
2019-03-23T07:48:34.482Z,20.57
2019-03-23T07:53:36.906Z,19.97
2019-03-23T07:58:39.432Z,17.27
2019-03-23T08:03:41.943Z,18.65
2019-03-23T08:08:44.236Z,19.35
2019-03-23T08:13:46.530Z,17.10
2019-03-23T08:18:48.760Z,16.97
2019-03-23T08:23:50.971Z,16.73
2019-03-23T08:28:53.192Z,22.50
2019-03-23T08:33:55.462Z,26.12
2019-03-23T08:38:57.729Z,24.90
2019-03-23T08:44:00.021Z,23.00
2019-03-23T08:49:02.386Z,27.55
2019-03-23T08:54:04.658Z,28.52
2019-03-23T08:59:06.883Z,31.23
2019-03-23T09:04:09.110Z,35.33
2019-03-23T09:09:11.351Z,27.80
2019-03-23T09:14:13.589Z,29.12
2019-03-23T09:19:15.848Z,28.87
2019-03-23T09:24:18.087Z,27.73
2019-03-23T09:29:20.426Z,29.10
2019-03-23T09:34:22.956Z,27.20
2019-03-23T09:39:25.252Z,30.80
2019-03-23T09:44:27.502Z,28.80
2019-03-23T09:49:29.817Z,28.10
2019-03-23T09:54:32.019Z,25.97
2019-03-23T09:59:34.522Z,35.88
2019-03-23T10:04:36.757Z,31.77
2019-03-23T10:09:38.991Z,25.70
2019-03-23T10:14:41.249Z,29.95
2019-03-23T10:19:43.554Z,32.90
2019-03-23T10:24:45.922Z,32.40
2019-03-23T10:29:48.140Z,34.75
2019-03-23T10:34:50.365Z,35.98
2019-03-23T10:39:52.771Z,34.90
2019-03-23T10:44:55.001Z,32.28
2019-03-23T10:49:57.230Z,29.85
2019-03-23T10:54:59.531Z,35.10
2019-03-23T11:00:01.758Z,34.67
2019-03-23T11:05:05.436Z,35.38
2019-03-23T11:10:08.858Z,39.05
2019-03-23T11:15:11.071Z,39.98
2019-03-23T11:20:13.282Z,49.23
2019-03-23T11:25:15.512Z,38.98
2019-03-23T11:30:17.787Z,42.23
2019-03-23T11:35:20.142Z,41.83
2019-03-23T11:40:22.568Z,43.75
2019-03-23T11:45:24.796Z,39.08
2019-03-23T11:50:26.993Z,40.78
2019-03-23T11:55:29.210Z,44.60
2019-03-23T12:00:31.466Z,45.28
2019-03-23T12:05:33.719Z,43.28
2019-03-23T12:10:36.036Z,46.23
2019-03-23T12:15:38.379Z,42.67
2019-03-23T12:20:40.597Z,43.35
2019-03-23T12:25:42.829Z,46.65
2019-03-23T12:30:45.170Z,44.67
2019-03-23T12:35:47.431Z,44.35
2019-03-23T12:40:49.667Z,48.92
2019-03-23T12:45:51.950Z,49.05
2019-03-23T12:50:54.202Z,45.45
2019-03-23T12:55:56.445Z,44.40
2019-03-23T13:00:59.276Z,46.63
2019-03-23T13:06:01.538Z,47.98
2019-03-23T13:11:03.821Z,47.98
2019-03-23T13:16:06.092Z,44.95
2019-03-23T13:21:08.334Z,48.42
2019-03-23T13:26:10.648Z,45.38
2019-03-23T13:31:13.022Z,41.40
2019-03-23T13:36:15.297Z,41.77
2019-03-23T13:41:17.622Z,44.60
2019-03-23T13:46:19.855Z,42.35
2019-03-23T13:51:22.193Z,44.23
2019-03-23T13:56:24.502Z,40.38
2019-03-23T14:01:27.184Z,36.42
2019-03-23T14:06:29.414Z,39.88
2019-03-23T14:11:31.809Z,38.92
2019-03-23T14:16:34.130Z,39.92
2019-03-23T14:21:36.367Z,38.88
2019-03-23T14:26:38.676Z,42.20
2019-03-23T14:31:41.158Z,37.10
2019-03-23T14:36:43.525Z,39.35
2019-03-23T14:41:46.052Z,34.23
2019-03-23T14:46:48.281Z,46.43
2019-03-23T14:51:50.537Z,42.60
2019-03-23T14:56:52.758Z,51.18
2019-03-23T15:01:55.088Z,43.13
2019-03-23T15:06:57.390Z,44.10
2019-03-23T15:11:59.769Z,47.67
2019-03-23T15:17:02.013Z,46.60
2019-03-23T15:22:05.991Z,41.68
2019-03-23T15:27:08.343Z,42.55
2019-03-23T15:32:11.665Z,43.48
2019-03-23T15:37:13.993Z,45.52
2019-03-23T15:42:24.419Z,48.08
2019-03-23T15:47:20.596Z,49.50
2019-03-23T15:52:22.800Z,51.08
2019-03-23T15:57:26.645Z,57.80
2019-03-23T16:02:29.031Z,64.95
2019-03-23T16:07:31.356Z,49.27
2019-03-23T16:12:35.298Z,49.18
2019-03-23T16:17:37.570Z,51.73
2019-03-23T16:22:39.803Z,52.80
2019-03-23T16:27:42.022Z,58.17
2019-03-23T16:32:44.276Z,61.45
2019-03-23T16:37:46.570Z,61.10
2019-03-23T16:42:48.894Z,54.90
2019-03-23T16:47:51.176Z,55.40
2019-03-23T16:52:53.472Z,49.93
2019-03-23T16:57:56.485Z,58.42
2019-03-23T17:02:59.017Z,59.75
2019-03-23T17:08:01.401Z,65.65
2019-03-23T17:13:03.752Z,73.50
2019-03-23T17:18:06.063Z,70.28
2019-03-23T17:23:08.396Z,77.62
2019-03-23T17:28:10.733Z,72.60
2019-03-23T17:33:13.938Z,73.96
2019-03-23T17:38:16.235Z,67.87
2019-03-23T17:43:19.287Z,70.00
2019-03-23T17:48:21.528Z,81.45
2019-03-23T17:53:23.843Z,66.07
2019-03-23T17:58:26.442Z,67.85
2019-03-23T18:03:28.751Z,57.78
2019-03-23T18:08:33.087Z,63.83
2019-03-23T18:13:35.073Z,65.37
2019-03-23T18:18:37.281Z,65.72
2019-03-23T18:23:39.799Z,93.33
2019-03-23T18:28:42.153Z,91.82
2019-03-23T18:33:44.415Z,87.70
2019-03-23T18:38:55.851Z,86.65
2019-03-23T18:43:58.462Z,95.85
2019-03-23T18:49:00.964Z,93.33
2019-03-23T18:54:03.298Z,97.17
2019-03-23T18:59:05.529Z,96.17
2019-03-23T19:04:07.922Z,104.50
2019-03-23T19:09:11.311Z,118.03
2019-03-23T19:14:13.647Z,107.03
2019-03-23T19:19:16.147Z,106.40
2019-03-23T19:24:18.359Z,115.53
2019-03-23T19:29:20.593Z,119.17
2019-03-23T19:34:23.633Z,109.90
2019-03-23T19:39:26.564Z,112.03
2019-03-23T19:44:28.851Z,109.07
2019-03-23T19:49:52.202Z,112.00
2019-03-23T19:54:54.546Z,116.60
2019-03-23T19:59:57.878Z,116.37
2019-03-23T20:05:00.374Z,123.60
2019-03-23T20:10:02.765Z,119.27
2019-03-23T20:15:08.013Z,119.37
2019-03-23T20:20:10.751Z,122.07
2019-03-23T20:25:14.841Z,122.07
2019-03-23T20:30:17.625Z,141.53
2019-03-23T20:35:20.097Z,122.07
2019-03-23T20:40:22.639Z,101.17
2019-03-23T20:45:28.970Z,104.63
2019-03-23T20:50:31.814Z,127.53
2019-03-23T20:55:35.158Z,110.23
2019-03-23T21:00:37.416Z,119.30
2019-03-23T21:05:40.997Z,122.53
2019-03-23T21:10:43.975Z,119.60
2019-03-23T21:15:46.262Z,133.90
2019-03-23T21:20:48.619Z,118.83
2019-03-23T21:25:51.120Z,119.80
2019-03-23T21:30:53.472Z,126.63
2019-03-23T21:35:55.974Z,124.40
2019-03-23T21:40:58.586Z,115.97
2019-03-23T21:46:01.309Z,122.83
2019-03-23T21:51:03.772Z,131.00
2019-03-23T21:56:06.029Z,132.17
2019-03-23T22:01:08.351Z,142.53
2019-03-23T22:06:10.652Z,140.17
2019-03-23T22:11:13.108Z,143.97
2019-03-23T22:16:15.463Z,131.93
2019-03-23T22:21:17.767Z,133.57
2019-03-23T22:26:19.999Z,133.17
2019-03-23T22:31:22.245Z,141.27
2019-03-23T22:36:24.524Z,130.90
2019-03-23T22:41:27.653Z,139.00
2019-03-23T22:46:30.005Z,136.43
2019-03-23T22:51:32.228Z,139.43
2019-03-23T22:56:34.902Z,128.83
2019-03-23T23:01:37.362Z,134.00
2019-03-23T23:06:39.853Z,126.23
2019-03-23T23:11:42.131Z,129.67
2019-03-23T23:16:44.388Z,139.87
2019-03-23T23:21:46.695Z,142.33
2019-03-23T23:26:49.040Z,132.10
2019-03-23T23:31:51.244Z,135.67
2019-03-23T23:36:53.611Z,128.30
2019-03-23T23:41:55.831Z,129.50
2019-03-23T23:46:58.152Z,135.63
2019-03-23T23:52:00.386Z,126.63
2019-03-23T23:57:02.611Z,129.27
